Time;durP1;ratioP1;P1;durP2;ratioP2;P2;SDS_P1;SDS_P2;PMS_P1;PMS_P2;Temp;Humidity;BMP_temperature;BMP_pressure;BME280_temperature;BME280_humidity;BME280_pressure;Samples;Min_cycle;Max_cycle;Signal;HPM_P1;HPM_P2
2022/09/21 00:00:44;;;;;;;4.15;2.28;;;8.30;99.90;;;;;;4419193;27;10000552;-75
2022/09/21 00:03:09;;;;;;;4.88;2.70;;;8.20;99.90;;;;;;5111993;27;20238;-75
2022/09/21 00:05:36;;;;;;;4.72;2.88;;;8.20;99.90;;;;;;5111343;27;20028;-75
2022/09/21 00:08:04;;;;;;;4.50;3.00;;;8.20;99.90;;;;;;5134853;27;20035;-76
2022/09/21 00:10:30;;;;;;;5.20;2.97;;;8.20;99.90;;;;;;5132904;27;20027;-75
2022/09/21 00:12:57;;;;;;;4.22;2.90;;;8.20;99.90;;;;;;5121823;27;20072;-75
2022/09/21 00:15:24;;;;;;;4.05;2.67;;;8.20;99.90;;;;;;5108431;27;20047;-76
2022/09/21 00:17:52;;;;;;;4.25;2.92;;;8.20;99.90;;;;;;5119384;27;20025;-75
2022/09/21 00:20:19;;;;;;;3.90;3.05;;;8.20;99.90;;;;;;5116401;27;20430;-75
2022/09/21 00:22:46;;;;;;;4.13;3.10;;;8.30;99.90;;;;;;5112567;27;20402;-75
2022/09/21 00:25:12;;;;;;;3.53;2.92;;;8.20;99.90;;;;;;5113457;27;20019;-75
2022/09/21 00:27:38;;;;;;;4.25;2.72;;;8.20;99.90;;;;;;5118030;27;20020;-75
2022/09/21 00:30:05;;;;;;;5.45;3.40;;;8.20;99.90;;;;;;5139383;27;20470;-75
2022/09/21 00:32:32;;;;;;;5.82;2.72;;;8.20;99.90;;;;;;5125008;27;20035;-75
2022/09/21 00:34:59;;;;;;;6.47;3.17;;;8.20;99.90;;;;;;5114762;27;20226;-76
2022/09/21 00:37:26;;;;;;;4.53;3.30;;;8.20;99.90;;;;;;5122223;27;20023;-76
2022/09/21 00:39:52;;;;;;;5.00;2.63;;;8.20;99.90;;;;;;5117538;27;20015;-76
2022/09/21 00:42:29;;;;;;;7.13;3.30;;;8.20;99.90;;;;;;5127954;27;20051;-75
2022/09/21 00:44:56;;;;;;;3.92;2.97;;;8.10;99.90;;;;;;5128589;27;20078;-76
2022/09/21 00:47:35;;;;;;;5.43;2.92;;;8.00;99.90;;;;;;5117991;27;20175;-76
2022/09/21 00:50:05;;;;;;;2.92;2.60;;;8.00;99.90;;;;;;5111593;27;20023;-75
2022/09/21 00:52:33;;;;;;;4.45;2.60;;;8.00;99.90;;;;;;5113085;27;20031;-75
2022/09/21 00:55:10;;;;;;;3.45;2.65;;;7.90;99.90;;;;;;5131401;27;20071;-75
2022/09/21 00:57:37;;;;;;;3.92;2.47;;;7.90;99.90;;;;;;5122211;27;20538;-75
2022/09/21 01:00:07;;;;;;;5.05;3.53;;;7.90;99.90;;;;;;5106410;27;20031;-76
2022/09/21 01:02:34;;;;;;;4.05;3.15;;;7.80;99.90;;;;;;5108205;27;20030;-76
2022/09/21 01:05:01;;;;;;;4.38;3.20;;;7.80;99.90;;;;;;5143127;27;20467;-76
2022/09/21 01:07:30;;;;;;;4.93;2.95;;;7.80;99.90;;;;;;5132436;27;20035;-75
2022/09/21 01:09:58;;;;;;;4.68;2.75;;;7.80;99.90;;;;;;5129027;27;20030;-75
2022/09/21 01:12:31;;;;;;;5.10;2.83;;;7.70;99.90;;;;;;5117113;27;20476;-75
2022/09/21 01:15:14;;;;;;;4.10;3.30;;;7.70;99.90;;;;;;5124719;27;20410;-75
2022/09/21 01:18:17;;;;;;;3.47;2.88;;;7.70;99.90;;;;;;5128073;27;20020;-76
2022/09/21 01:21:03;;;;;;;3.30;3.00;;;7.70;99.90;;;;;;5108745;27;20070;-76
2022/09/21 01:23:44;;;;;;;7.53;3.60;;;7.70;99.90;;;;;;5126097;27;20038;-76
2022/09/21 01:26:24;;;;;;;4.95;3.47;;;7.60;99.90;;;;;;5108683;27;20402;-75
2022/09/21 01:28:59;;;;;;;4.68;3.55;;;7.60;99.90;;;;;;5117827;27;20022;-75
2022/09/21 01:31:30;;;;;;;7.57;4.13;;;7.60;99.90;;;;;;5116596;27;20054;-75
2022/09/21 01:34:01;;;;;;;4.85;3.80;;;7.70;99.90;;;;;;5115051;27;20094;-75
2022/09/21 01:36:29;;;;;;;5.65;4.07;;;7.70;99.90;;;;;;5133383;27;20063;-75
2022/09/21 01:39:04;;;;;;;3.05;2.58;;;7.60;99.90;;;;;;5136370;27;20114;-76
2022/09/21 01:41:31;;;;;;;2.92;2.17;;;7.50;99.90;;;;;;5134642;27;20411;-75
2022/09/21 01:44:07;;;;;;;4.65;3.28;;;7.40;99.90;;;;;;5107295;27;20036;-75
2022/09/21 01:46:34;;;;;;;5.47;3.95;;;7.40;99.90;;;;;;5118204;27;20514;-75
2022/09/21 01:49:08;;;;;;;3.80;3.15;;;7.40;99.90;;;;;;5117328;27;20039;-75
2022/09/21 01:51:35;;;;;;;8.52;3.25;;;7.30;99.90;;;;;;5111850;27;20244;-76
2022/09/21 01:54:06;;;;;;;3.42;2.60;;;7.30;99.90;;;;;;5117577;27;20046;-75
2022/09/21 01:56:39;;;;;;;3.88;2.90;;;7.20;99.90;;;;;;5115483;27;20471;-76
2022/09/21 01:59:26;;;;;;;4.93;3.80;;;7.20;99.90;;;;;;5109089;27;20251;-75
2022/09/21 02:01:59;;;;;;;5.35;4.40;;;7.20;99.90;;;;;;5119083;27;20054;-76
2022/09/21 02:04:26;;;;;;;5.53;4.22;;;7.20;99.90;;;;;;5120454;27;21217;-76
2022/09/21 02:06:52;;;;;;;6.82;4.60;;;7.20;99.90;;;;;;5112173;27;20100;-76
2022/09/21 02:09:18;;;;;;;5.47;4.10;;;7.20;99.90;;;;;;5120432;27;20054;-75
2022/09/21 02:11:44;;;;;;;9.38;4.60;;;7.20;99.90;;;;;;5128855;27;20058;-76
2022/09/21 02:14:14;;;;;;;5.03;4.25;;;7.20;99.90;;;;;;5122775;27;20580;-76
2022/09/21 02:17:06;;;;;;;6.07;3.92;;;7.20;99.90;;;;;;5116572;27;20030;-76
2022/09/21 02:19:49;;;;;;;6.40;4.15;;;7.10;99.90;;;;;;5126549;27;20027;-75
2022/09/21 02:22:28;;;;;;;6.50;3.42;;;7.10;99.90;;;;;;5111130;27;20062;-76
2022/09/21 02:25:03;;;;;;;3.95;3.15;;;7.10;99.90;;;;;;5138940;27;20114;-76
2022/09/21 02:27:48;;;;;;;3.20;2.80;;;7.00;99.90;;;;;;5111099;27;20082;-76
2022/09/21 02:30:20;;;;;;;3.40;2.88;;;7.00;99.90;;;;;;5113525;27;20019;-76
2022/09/21 02:33:17;;;;;;;4.47;3.50;;;7.00;99.90;;;;;;5122072;27;20057;-76
2022/09/21 02:36:00;;;;;;;3.70;3.38;;;6.90;99.90;;;;;;5105572;27;20028;-75
2022/09/21 02:38:39;;;;;;;4.35;3.50;;;6.80;99.90;;;;;;5103445;27;20612;-76
2022/09/21 02:41:18;;;;;;;4.85;3.30;;;6.90;99.90;;;;;;5106136;27;20149;-75
2022/09/21 02:43:50;;;;;;;7.22;4.50;;;7.00;99.90;;;;;;5124231;27;20444;-76
2022/09/21 02:46:24;;;;;;;4.75;4.13;;;7.00;99.90;;;;;;5121884;27;20031;-76
2022/09/21 02:48:54;;;;;;;6.43;4.38;;;7.00;99.90;;;;;;5117709;27;20110;-76
2022/09/21 02:51:31;;;;;;;4.13;3.72;;;7.00;99.90;;;;;;5110317;27;20057;-76
2022/09/21 02:54:00;;;;;;;7.00;3.78;;;7.00;99.90;;;;;;5115857;27;20383;-76
2022/09/21 02:56:26;;;;;;;17.15;3.72;;;7.00;99.90;;;;;;5114575;27;20031;-76
2022/09/21 02:58:55;;;;;;;5.57;3.63;;;7.10;99.90;;;;;;5120683;27;20049;-76
2022/09/21 03:01:24;;;;;;;4.85;3.28;;;7.30;99.90;;;;;;5121433;27;20073;-76
2022/09/21 03:03:49;;;;;;;3.42;3.13;;;7.40;99.90;;;;;;5122866;27;20247;-77
2022/09/21 03:06:15;;;;;;;18.63;3.67;;;7.50;99.90;;;;;;5130942;27;20023;-77
2022/09/21 03:08:40;;;;;;;35.88;3.97;;;7.50;99.90;;;;;;5114295;27;20124;-77
2022/09/21 03:11:06;;;;;;;36.67;3.50;;;7.60;99.90;;;;;;5136427;27;20023;-77
2022/09/21 03:13:32;;;;;;;10.23;3.15;;;7.60;99.90;;;;;;5114921;27;20115;-77
2022/09/21 03:16:03;;;;;;;6.65;3.53;;;7.60;99.90;;;;;;5138462;27;20482;-77
2022/09/21 03:18:29;;;;;;;8.40;3.53;;;7.60;99.90;;;;;;5110298;27;20077;-77
2022/09/21 03:20:55;;;;;;;7.78;3.33;;;7.60;99.90;;;;;;5118523;27;20283;-77
2022/09/21 03:23:20;;;;;;;38.67;3.90;;;7.60;99.90;;;;;;5113870;27;20023;-77
2022/09/21 03:25:46;;;;;;;3.88;2.85;;;7.60;99.90;;;;;;5118924;27;20057;-77
2022/09/21 03:28:13;;;;;;;5.50;2.80;;;7.60;99.90;;;;;;5109540;28;20643;-77
2022/09/21 03:30:39;;;;;;;21.98;2.88;;;7.50;99.90;;;;;;5118041;27;20634;-77
2022/09/21 03:33:05;;;;;;;4.82;2.45;;;7.50;99.90;;;;;;5102135;27;20071;-77
2022/09/21 03:35:34;;;;;;;7.38;3.25;;;7.50;99.90;;;;;;5108983;27;20083;-77
2022/09/21 03:38:00;;;;;;;28.92;3.28;;;7.50;99.90;;;;;;5125591;27;20437;-77
2022/09/21 03:40:26;;;;;;;3.05;2.83;;;7.40;99.90;;;;;;5127105;27;20437;-77
2022/09/21 03:42:53;;;;;;;20.58;3.05;;;7.40;99.90;;;;;;5111449;27;20024;-77
2022/09/21 03:45:20;;;;;;;22.02;2.95;;;7.50;99.90;;;;;;5117972;27;20039;-77
2022/09/21 03:47:47;;;;;;;11.57;2.90;;;7.50;99.90;;;;;;5125598;27;20038;-77
2022/09/21 03:50:13;;;;;;;10.40;2.97;;;7.50;99.90;;;;;;5124564;27;20088;-77
2022/09/21 03:52:39;;;;;;;2.60;2.40;;;7.40;99.90;;;;;;5135600;27;20416;-77
2022/09/21 03:55:06;;;;;;;11.75;3.10;;;7.50;99.90;;;;;;5128705;27;20022;-77
2022/09/21 03:57:36;;;;;;;7.93;2.38;;;7.50;99.90;;;;;;5130729;27;20017;-77
2022/09/21 04:00:09;;;;;;;7.43;2.65;;;7.50;99.90;;;;;;5103901;27;20023;-77
2022/09/21 04:02:36;;;;;;;2.50;2.30;;;7.50;99.90;;;;;;5115300;27;20028;-77
2022/09/21 04:05:02;;;;;;;13.82;2.72;;;7.50;99.90;;;;;;5124536;27;20026;-77
2022/09/21 04:07:33;;;;;;;27.73;2.95;;;7.50;99.90;;;;;;5131861;27;20294;-77
2022/09/21 04:09:59;;;;;;;2.45;2.25;;;7.40;99.90;;;;;;5104019;27;20097;-77
2022/09/21 04:12:25;;;;;;;2.58;2.38;;;7.30;99.90;;;;;;5129619;27;20531;-77
2022/09/21 04:14:51;;;;;;;4.68;2.55;;;7.30;99.90;;;;;;5127832;27;20501;-77
2022/09/21 04:17:17;;;;;;;60.40;3.33;;;7.20;99.90;;;;;;5105294;27;20021;-77
2022/09/21 04:19:46;;;;;;;28.95;2.60;;;7.10;99.90;;;;;;5112085;27;20383;-77
2022/09/21 04:22:12;;;;;;;2.78;2.25;;;7.00;99.90;;;;;;5107166;27;20422;-77
2022/09/21 04:24:41;;;;;;;2.55;2.35;;;6.80;99.90;;;;;;5121837;27;20594;-77
2022/09/21 04:27:07;;;;;;;10.07;2.88;;;6.80;99.90;;;;;;5121870;27;20034;-77
2022/09/21 04:29:33;;;;;;;11.70;2.72;;;6.70;99.90;;;;;;5127955;27;20027;-78
2022/09/21 04:31:59;;;;;;;2.88;2.53;;;6.70;99.90;;;;;;5125982;27;20072;-77
2022/09/21 04:34:25;;;;;;;4.65;2.70;;;6.80;99.90;;;;;;5124449;27;20035;-77
2022/09/21 04:36:52;;;;;;;2.53;2.33;;;6.80;99.90;;;;;;5116691;27;20499;-77
2022/09/21 04:39:18;;;;;;;2.88;2.67;;;6.80;99.90;;;;;;5117042;27;20296;-77
2022/09/21 04:41:44;;;;;;;5.93;2.45;;;6.80;99.90;;;;;;5130674;27;20058;-77
2022/09/21 04:44:09;;;;;;;3.63;3.00;;;6.80;99.90;;;;;;5118168;27;20498;-77
2022/09/21 04:46:35;;;;;;;5.05;2.65;;;6.80;99.90;;;;;;5124917;27;20023;-76
2022/09/21 04:49:01;;;;;;;15.25;2.50;;;6.80;99.90;;;;;;5119090;27;20039;-77
2022/09/21 04:51:26;;;;;;;2.78;2.58;;;6.80;99.90;;;;;;5112757;27;20077;-76
2022/09/21 04:53:52;;;;;;;3.38;3.08;;;6.80;99.90;;;;;;5115431;27;20027;-77
2022/09/21 04:56:18;;;;;;;3.60;3.30;;;6.80;99.90;;;;;;5108484;27;20027;-77
2022/09/21 04:58:44;;;;;;;4.72;3.40;;;6.90;99.90;;;;;;5106940;27;20402;-77
2022/09/21 05:01:10;;;;;;;4.85;3.60;;;6.90;99.90;;;;;;5137291;27;20018;-77
2022/09/21 05:03:36;;;;;;;3.85;3.55;;;6.90;99.90;;;;;;5136167;27;20107;-77
2022/09/21 05:06:02;;;;;;;4.30;3.90;;;6.90;99.90;;;;;;5130782;27;20055;-77
2022/09/21 05:11:17;;;;;;;17.88;4.30;;;7.00;99.90;;;;;;5133188;27;20038;-77
2022/09/21 05:13:44;;;;;;;5.03;4.53;;;7.00;99.90;;;;;;5116042;27;20460;-77
2022/09/21 05:16:10;;;;;;;41.25;5.53;;;7.00;99.90;;;;;;5132413;27;20774;-77
2022/09/21 05:18:36;;;;;;;4.75;4.30;;;7.00;99.90;;;;;;5114520;27;20059;-77
2022/09/21 05:21:02;;;;;;;4.63;4.22;;;7.00;99.90;;;;;;5104975;27;20035;-78
2022/09/21 05:23:30;;;;;;;58.60;5.28;;;7.00;99.90;;;;;;5112117;27;20024;-78
2022/09/21 05:25:56;;;;;;;10.93;4.03;;;7.00;99.90;;;;;;5108597;27;20043;-78
2022/09/21 05:28:22;;;;;;;9.52;3.38;;;7.00;99.90;;;;;;5126954;27;20028;-77
2022/09/21 05:31:03;;;;;;;3.80;3.50;;;7.10;99.90;;;;;;5106878;27;20455;-78
2022/09/21 05:33:30;;;;;;;5.15;4.65;;;7.00;99.90;;;;;;5120840;27;20143;-78
2022/09/21 05:36:26;;;;;;;5.03;4.63;;;7.00;99.90;;;;;;5115031;27;20030;-78
2022/09/21 05:38:52;;;;;;;5.18;4.68;;;7.10;99.90;;;;;;5105870;27;20030;-78
2022/09/21 05:41:18;;;;;;;6.03;5.38;;;7.10;99.90;;;;;;5099059;27;20035;-77
2022/09/21 05:43:44;;;;;;;18.38;5.70;;;7.20;99.90;;;;;;5092169;27;20051;-78
2022/09/21 05:46:38;;;;;;;6.75;6.00;;;7.30;99.90;;;;;;5097056;27;20221;-78
2022/09/21 05:49:41;;;;;;;6.75;6.05;;;7.30;99.90;;;;;;5096426;27;20570;-78
2022/09/21 05:52:20;;;;;;;9.63;6.32;;;7.30;99.90;;;;;;5085339;27;20027;-78
2022/09/21 05:54:57;;;;;;;7.03;6.32;;;7.30;99.90;;;;;;5085364;27;20743;-78
2022/09/21 05:57:59;;;;;;;9.75;7.03;;;7.30;99.90;;;;;;5090733;27;20031;-78
2022/09/21 06:00:31;;;;;;;17.33;5.65;;;7.30;99.90;;;;;;5090420;27;20030;-77
2022/09/21 06:03:28;;;;;;;9.45;5.05;;;7.30;99.90;;;;;;5101479;27;20130;-78
2022/09/21 06:05:55;;;;;;;37.30;5.50;;;7.30;99.90;;;;;;5086808;28;20379;-77
2022/09/21 06:08:21;;;;;;;9.85;5.80;;;7.20;99.90;;;;;;5091791;27;20045;-78
2022/09/21 06:10:47;;;;;;;6.85;6.00;;;7.30;99.90;;;;;;5089354;27;20643;-78
2022/09/21 06:13:13;;;;;;;6.93;6.28;;;7.30;99.90;;;;;;5092792;27;20023;-78
2022/09/21 06:15:39;;;;;;;7.50;5.78;;;7.40;99.90;;;;;;5091247;27;20266;-79
2022/09/21 06:18:05;;;;;;;21.23;6.28;;;7.40;99.90;;;;;;5108056;27;20019;-77
2022/09/21 06:20:31;;;;;;;7.03;5.90;;;7.50;99.90;;;;;;5100823;27;20035;-81
2022/09/21 06:23:05;;;;;;;7.10;6.40;;;7.50;99.90;;;;;;5121305;27;20031;-80
2022/09/21 06:25:31;;;;;;;24.33;7.10;;;7.50;99.90;;;;;;5100794;27;20023;-86
2022/09/21 06:28:10;;;;;;;8.60;6.90;;;7.50;99.90;;;;;;4754602;27;10000101;-81
2022/09/21 06:30:38;;;;;;;7.05;6.30;;;7.60;99.90;;;;;;5094209;28;20311;-84
2022/09/21 06:33:05;;;;;;;7.93;6.50;;;7.60;99.90;;;;;;5084621;28;20146;-85
2022/09/21 06:35:32;;;;;;;9.10;6.40;;;7.70;99.90;;;;;;5100491;28;20423;-79
2022/09/21 06:37:59;;;;;;;9.75;6.28;;;7.70;99.90;;;;;;5090392;28;20449;-82
2022/09/21 06:40:26;;;;;;;6.63;5.95;;;7.70;99.90;;;;;;5114896;27;20031;-85
2022/09/21 06:42:56;;;;;;;6.70;6.00;;;7.80;99.90;;;;;;5103075;27;20041;-81
2022/09/21 06:45:21;;;;;;;6.50;5.88;;;7.80;99.90;;;;;;5111166;27;20260;-87
2022/09/21 06:47:47;;;;;;;7.32;6.10;;;7.80;99.90;;;;;;5093813;27;20020;-87
2022/09/21 06:50:13;;;;;;;6.05;5.45;;;7.80;99.90;;;;;;5100233;27;20027;-80
2022/09/21 06:52:39;;;;;;;5.95;5.35;;;7.90;99.90;;;;;;5098610;27;20035;-84
2022/09/21 06:55:05;;;;;;;6.38;5.55;;;7.90;99.90;;;;;;5099246;27;20024;-88
2022/09/21 06:57:31;;;;;;;6.47;5.60;;;7.90;99.90;;;;;;5103781;27;20088;-87
2022/09/21 06:59:57;;;;;;;10.10;6.15;;;7.90;99.90;;;;;;5090195;28;20036;-82
2022/09/21 07:02:22;;;;;;;5.85;5.30;;;7.90;99.90;;;;;;5081719;28;20240;-84
2022/09/21 07:04:48;;;;;;;6.90;5.30;;;8.00;99.90;;;;;;5085584;28;20481;-84
2022/09/21 07:07:14;;;;;;;14.77;5.18;;;8.00;99.90;;;;;;5091799;28;20476;-88
2022/09/21 07:09:39;;;;;;;38.03;5.80;;;8.00;99.90;;;;;;5083428;28;20567;-83
2022/09/21 07:12:06;;;;;;;17.65;5.60;;;7.90;99.90;;;;;;5091326;28;20024;-82
2022/09/21 07:14:32;;;;;;;6.25;4.97;;;7.90;99.90;;;;;;5081704;28;20032;-82
2022/09/21 07:16:58;;;;;;;11.13;5.22;;;7.90;99.90;;;;;;5105765;28;20403;-84
2022/09/21 07:19:24;;;;;;;11.35;6.70;;;7.90;99.90;;;;;;5113615;28;20054;-84
2022/09/21 07:21:53;;;;;;;7.30;6.05;;;8.00;99.90;;;;;;5098301;28;20436;-82
2022/09/21 07:24:18;;;;;;;6.55;5.75;;;8.10;99.90;;;;;;5103355;28;20036;-82
2022/09/21 07:26:44;;;;;;;7.05;6.35;;;8.20;99.90;;;;;;5094978;28;20358;-82
2022/09/21 07:29:09;;;;;;;6.47;5.88;;;8.30;99.90;;;;;;5092692;28;20024;-82
2022/09/21 07:31:35;;;;;;;7.32;6.07;;;8.30;99.90;;;;;;5093108;28;20032;-81
2022/09/21 07:34:01;;;;;;;7.95;7.15;;;8.40;99.90;;;;;;5100140;28;20035;-80
2022/09/21 07:36:26;;;;;;;7.25;6.43;;;8.50;99.90;;;;;;5119534;28;20019;-80
2022/09/21 07:38:52;;;;;;;9.32;6.90;;;8.50;99.90;;;;;;5103564;28;20038;-81
2022/09/21 07:41:19;;;;;;;7.35;6.65;;;8.60;99.90;;;;;;5095779;27;20503;-81
2022/09/21 07:43:44;;;;;;;8.00;6.40;;;8.60;99.90;;;;;;5125413;27;20290;-80
2022/09/21 07:46:13;;;;;;;32.45;6.55;;;8.70;99.90;;;;;;5120456;27;20020;-81
2022/09/21 07:48:39;;;;;;;8.90;6.15;;;8.70;99.90;;;;;;5134792;27;20024;-80
2022/09/21 07:51:10;;;;;;;9.57;6.03;;;8.70;99.90;;;;;;5114368;27;20027;-80
2022/09/21 07:53:37;;;;;;;7.22;6.40;;;8.70;99.90;;;;;;5136232;27;20473;-83
2022/09/21 07:56:08;;;;;;;8.13;6.28;;;8.80;99.90;;;;;;5125564;27;20039;-81
2022/09/21 08:01:19;;;;;;;8.90;7.30;;;8.80;99.90;;;;;;5142716;27;20095;-81
2022/09/21 08:03:51;;;;;;;8.52;6.82;;;8.80;99.90;;;;;;5113076;27;20031;-82
2022/09/21 08:06:18;;;;;;;12.82;6.53;;;8.80;99.90;;;;;;5118698;27;20380;-81
2022/09/21 08:08:47;;;;;;;7.90;7.05;;;8.80;99.90;;;;;;5117896;27;20015;-80
2022/09/21 08:11:13;;;;;;;8.30;6.72;;;8.90;99.90;;;;;;5140492;27;20082;-78
2022/09/21 08:13:53;;;;;;;9.20;8.00;;;;;;;;;;4861173;27;10000449;-80
2022/09/21 08:16:19;;;;;;;14.32;7.65;;;9.10;99.90;;;;;;5121444;27;20553;-81
2022/09/21 08:18:44;;;;;;;8.90;8.00;;;9.00;99.90;;;;;;5117745;27;20138;-81
2022/09/21 08:21:10;;;;;;;11.05;7.90;;;9.10;99.90;;;;;;5120928;27;20501;-80
2022/09/21 08:23:39;;;;;;;10.25;8.00;;;9.10;99.90;;;;;;5122702;27;20104;-81
2022/09/21 08:26:06;;;;;;;8.95;8.05;;;9.20;99.90;;;;;;5124643;27;20027;-81
2022/09/21 08:28:33;;;;;;;8.85;7.70;;;9.30;99.90;;;;;;5120027;27;20168;-81
2022/09/21 08:30:59;;;;;;;9.65;8.65;;;9.40;99.90;;;;;;5120861;27;20478;-80
2022/09/21 08:33:26;;;;;;;9.50;7.70;;;;;;;;;;5117053;27;20035;-79
2022/09/21 08:35:57;;;;;;;9.02;7.95;;;9.60;99.90;;;;;;5129654;27;20023;-77
2022/09/21 08:38:23;;;;;;;14.50;8.05;;;9.70;99.90;;;;;;5111816;27;20214;-81
2022/09/21 08:40:50;;;;;;;9.23;7.97;;;9.70;99.90;;;;;;5149162;27;20498;-81
2022/09/21 08:43:28;;;;;;;9.85;8.82;;;9.70;99.90;;;;;;5149273;27;20023;-80
2022/09/21 08:45:56;;;;;;;13.35;9.40;;;9.80;99.90;;;;;;5139360;27;20574;-81
2022/09/21 08:48:24;;;;;;;12.00;9.02;;;9.90;99.90;;;;;;5115070;27;20035;-81
2022/09/21 08:50:54;;;;;;;10.02;8.48;;;10.00;99.90;;;;;;5118069;27;20122;-81
2022/09/21 08:53:32;;;;;;;10.50;8.63;;;10.20;99.90;;;;;;5113310;27;20060;-81
2022/09/21 08:55:57;;;;;;;9.88;8.80;;;10.30;99.90;;;;;;5118975;27;20410;-81
2022/09/21 08:58:29;;;;;;;12.10;9.25;;;10.30;99.90;;;;;;5125833;27;20219;-81
2022/09/21 09:01:01;;;;;;;10.63;9.02;;;10.30;99.90;;;;;;5125809;27;20518;-80
2022/09/21 09:03:45;;;;;;;12.18;9.68;;;10.40;99.90;;;;;;5122267;27;20035;-80
2022/09/21 09:07:03;;;;;;;11.30;9.40;;;10.40;99.90;;;;;;5112576;27;20056;-80
2022/09/21 09:09:59;;;;;;;12.57;9.55;;;10.40;99.90;;;;;;5050207;28;20035;-80
2022/09/21 09:12:54;;;;;;;14.48;9.85;;;10.40;99.90;;;;;;5124040;27;20472;-80
2022/09/21 09:15:33;;;;;;;13.52;8.60;;;10.50;99.90;;;;;;5148964;27;20026;-80
2022/09/21 09:18:19;;;;;;;11.27;9.15;;;10.50;99.90;;;;;;5141726;27;20101;-80
2022/09/21 09:21:02;;;;;;;10.55;8.85;;;10.60;99.90;;;;;;5122595;27;20191;-80
2022/09/21 09:23:34;;;;;;;13.00;9.60;;;10.70;99.90;;;;;;5122589;27;20027;-80
2022/09/21 09:26:07;;;;;;;13.67;8.97;;;10.80;99.90;;;;;;5124993;27;20035;-80
2022/09/21 09:29:08;;;;;;;14.18;7.65;;;10.80;99.90;;;;;;5120390;27;20031;-80
2022/09/21 09:31:35;;;;;;;9.07;7.78;;;10.80;99.90;;;;;;5127848;27;20382;-80
2022/09/21 09:34:15;;;;;;;11.90;9.15;;;10.90;99.90;;;;;;5124894;27;20031;-80
2022/09/21 09:36:47;;;;;;;9.05;7.75;;;10.90;99.90;;;;;;5137587;27;20058;-80
2022/09/21 09:39:15;;;;;;;11.75;8.63;;;11.00;99.90;;;;;;5116970;27;20035;-80
2022/09/21 09:42:05;;;;;;;9.85;7.85;;;11.10;99.90;;;;;;5101069;27;20078;-80
2022/09/21 09:44:43;;;;;;;9.27;8.05;;;11.10;99.90;;;;;;5102220;27;20047;-81
2022/09/21 09:47:18;;;;;;;12.20;7.85;;;11.20;99.90;;;;;;5085394;28;20024;-80
2022/09/21 09:50:08;;;;;;;14.18;8.77;;;11.30;99.90;;;;;;5088344;27;20261;-80
2022/09/21 09:52:35;;;;;;;12.00;8.57;;;11.40;99.90;;;;;;5121594;27;21277;-81
2022/09/21 09:55:13;;;;;;;13.00;9.07;;;11.40;99.90;;;;;;5110315;27;20050;-81
2022/09/21 09:57:39;;;;;;;9.18;8.13;;;11.40;99.90;;;;;;5096162;27;20019;-81
2022/09/21 10:00:11;;;;;;;12.40;8.93;;;11.50;99.90;;;;;;5093087;27;20531;-80
2022/09/21 10:02:51;;;;;;;13.40;9.40;;;11.60;99.90;;;;;;5111557;27;20031;-79
2022/09/21 10:05:37;;;;;;;12.05;9.13;;;11.50;99.90;;;;;;5086949;28;20025;-81
2022/09/21 10:08:03;;;;;;;11.10;9.23;;;11.50;99.90;;;;;;5110869;27;20081;-80
2022/09/21 10:10:29;;;;;;;12.75;10.52;;;11.60;99.90;;;;;;5120016;27;20487;-81
2022/09/21 10:13:21;;;;;;;11.27;10.05;;;11.60;99.90;;;;;;5100860;27;20038;-81
2022/09/21 10:15:57;;;;;;;14.02;9.95;;;11.60;99.90;;;;;;5087024;28;20028;-80
2022/09/21 10:18:29;;;;;;;14.65;10.80;;;11.70;99.90;;;;;;5112081;27;20392;-81
2022/09/21 10:21:02;;;;;;;13.95;10.68;;;11.90;99.90;;;;;;5113468;27;20084;-80
2022/09/21 10:23:29;;;;;;;13.70;10.68;;;11.90;99.90;;;;;;5094037;27;20077;-79
2022/09/21 10:26:00;;;;;;;13.77;10.05;;;11.90;99.90;;;;;;5109703;27;20034;-84
2022/09/21 10:28:27;;;;;;;11.85;9.75;;;12.00;99.90;;;;;;5100275;27;20047;-82
2022/09/21 10:31:11;;;;;;;12.40;9.65;;;12.10;99.90;;;;;;5100553;27;20027;-82
2022/09/21 10:33:52;;;;;;;11.93;10.18;;;12.20;99.90;;;;;;5121479;27;20035;-82
2022/09/21 10:36:30;;;;;;;11.82;9.82;;;12.30;99.90;;;;;;5094964;27;20043;-82
2022/09/21 10:39:08;;;;;;;14.23;10.52;;;12.50;99.90;;;;;;5110650;27;20197;-81
2022/09/21 10:41:36;;;;;;;13.38;10.10;;;12.60;99.90;;;;;;4744465;27;10000482;-81
2022/09/21 10:44:02;;;;;;;14.45;10.30;;;12.80;99.90;;;;;;5101406;27;20036;-84
2022/09/21 10:46:34;;;;;;;13.30;9.50;;;13.00;99.90;;;;;;5105307;27;20595;-83
2022/09/21 10:49:01;;;;;;;13.32;9.85;;;13.20;99.90;;;;;;5111983;27;20051;-82
2022/09/21 10:51:29;;;;;;;11.50;8.80;;;13.30;99.90;;;;;;5106052;27;20038;-83
2022/09/21 10:53:55;;;;;;;11.65;8.70;;;13.50;99.90;;;;;;5110026;27;20173;-84
2022/09/21 10:56:21;;;;;;;12.00;8.30;;;13.70;99.90;;;;;;5115886;27;20032;-84
2022/09/21 10:59:19;;;;;;;11.68;9.15;;;14.00;99.90;;;;;;5102393;27;20035;-85
2022/09/21 11:01:47;;;;;;;10.98;7.40;;;14.20;99.90;;;;;;5095555;27;20388;-83
2022/09/21 11:04:33;;;;;;;9.73;6.90;;;14.40;99.90;;;;;;5106545;27;20042;-78
2022/09/21 11:07:09;;;;;;;9.65;6.68;;;14.50;99.90;;;;;;5081980;28;20077;-78
2022/09/21 11:10:01;;;;;;;8.82;4.63;;;14.70;99.90;;;;;;5103463;27;20039;-78
2022/09/21 11:12:38;;;;;;;9.82;4.30;;;14.90;99.90;;;;;;5093283;28;20035;-78
2022/09/21 11:15:13;;;;;;;7.30;3.25;;;15.00;99.90;;;;;;5105299;28;20027;-78
2022/09/21 11:17:57;;;;;;;11.80;4.40;;;15.10;99.90;;;;;;5114749;28;20274;-79
2022/09/21 11:21:03;;;;;;;11.70;4.43;;;15.20;99.90;;;;;;5083496;28;20031;-78
2022/09/21 11:23:48;;;;;;;8.25;4.82;;;15.10;99.90;;;;;;5119225;28;20042;-78
2022/09/21 11:26:34;;;;;;;9.77;5.13;;;15.00;99.90;;;;;;5107286;28;20032;-78
2022/09/21 11:29:11;;;;;;;9.25;5.07;;;14.90;99.90;;;;;;5084464;28;20023;-79
2022/09/21 11:32:11;;;;;;;7.60;3.38;;;14.90;99.90;;;;;;5106758;27;20399;-79
2022/09/21 11:35:04;;;;;;;10.15;3.90;;;14.90;99.90;;;;;;5019642;28;20033;-79
2022/09/21 11:37:36;;;;;;;8.40;3.43;;;15.10;99.90;;;;;;5107076;27;20436;-79
2022/09/21 11:40:47;;;;;;;7.85;3.00;;;15.30;99.90;;;;;;5099123;27;20369;-78
2022/09/21 11:43:22;;;;;;;10.32;3.72;;;15.30;99.90;;;;;;5128764;27;20267;-77
2022/09/21 11:45:56;;;;;;;13.73;3.90;;;15.40;99.90;;;;;;5112279;27;20020;-78
2022/09/21 11:48:34;;;;;;;11.40;4.18;;;15.50;99.90;;;;;;5142387;27;20026;-77
2022/09/21 11:51:11;;;;;;;7.07;3.47;;;15.60;99.90;;;;;;5122417;27;20027;-77
2022/09/21 11:54:07;;;;;;;8.82;3.33;;;15.60;99.90;;;;;;5113355;27;20022;-77
2022/09/21 11:56:56;;;;;;;9.45;3.90;;;15.70;99.90;;;;;;5119586;27;20070;-77
2022/09/21 11:59:25;;;;;;;9.10;3.55;;;15.80;99.90;;;;;;5131585;27;20027;-78
2022/09/21 12:02:09;;;;;;;7.25;3.20;;;15.80;99.90;;;;;;5114357;27;20024;-77
2022/09/21 12:04:50;;;;;;;10.80;3.30;;;15.80;99.90;;;;;;5119708;27;20034;-78
2022/09/21 12:07:40;;;;;;;6.07;1.90;;;15.90;99.90;;;;;;5115757;27;21223;-77
2022/09/21 12:10:33;;;;;;;4.88;1.92;;;15.80;99.90;;;;;;5117982;27;20549;-76
2022/09/21 12:13:22;;;;;;;;;;;15.90;99.90;;;;;;5132974;27;20152;-76
2022/09/21 12:16:01;;;;;;;7.28;2.08;;;16.00;99.90;;;;;;5118165;27;19947;-77
2022/09/21 12:19:04;;;;;;;7.43;2.22;;;16.10;99.90;;;;;;5103011;27;20502;-77
2022/09/21 12:21:35;;;;;;;5.07;1.50;;;16.20;99.90;;;;;;5098805;27;20525;-78
2022/09/21 12:24:13;;;;;;;7.80;1.98;;;16.30;99.90;;;;;;5140593;27;20498;-80
2022/09/21 12:26:43;;;;;;;10.68;2.33;;;16.40;99.90;;;;;;5124539;27;20585;-78
2022/09/21 12:29:24;;;;;;;6.28;2.60;;;16.50;99.90;;;;;;5121465;27;20026;-78
2022/09/21 12:32:00;;;;;;;5.45;2.17;;;16.50;99.90;;;;;;5132247;27;20027;-78
2022/09/21 12:34:42;;;;;;;7.65;2.53;;;16.50;99.90;;;;;;5131483;27;20032;-77
2022/09/21 12:37:24;;;;;;;5.60;1.73;;;16.60;99.90;;;;;;5128342;27;20041;-81
2022/09/21 12:40:19;;;;;;;4.40;1.90;;;16.60;99.90;;;;;;5124551;27;20030;-81
2022/09/21 12:42:49;;;;;;;9.93;1.95;;;16.70;99.90;;;;;;5126194;27;20049;-81
2022/09/21 12:45:25;;;;;;;5.13;1.85;;;16.80;99.90;;;;;;5133336;27;20031;-81
2022/09/21 12:48:19;;;;;;;6.57;1.95;;;16.90;99.90;;;;;;5110881;27;20036;-79
2022/09/21 12:50:56;;;;;;;7.55;2.22;;;17.10;99.90;;;;;;5138990;27;20084;-81
2022/09/21 12:53:25;;;;;;;6.18;1.70;;;17.10;99.90;;;;;;5106906;27;20034;-79
2022/09/21 12:56:09;;;;;;;5.45;1.80;;;17.20;99.90;;;;;;5121284;27;20033;-80
2022/09/21 12:58:59;;;;;;;7.90;2.83;;;17.20;99.90;;;;;;5105636;28;20036;-82
2022/09/21 13:01:28;;;;;;;8.35;1.88;;;17.20;99.90;;;;;;5138152;27;20061;-84
2022/09/21 13:04:21;;;;;;;4.47;1.55;;;17.30;99.90;;;;;;5116978;27;20440;-82
2022/09/21 13:07:09;;;;;;;6.32;1.30;;;17.40;99.90;;;;;;5103365;28;20016;-84
2022/09/21 13:09:41;;;;;;;6.35;1.45;;;17.50;99.90;;;;;;5116296;27;20034;-83
2022/09/21 13:12:13;;;;;;;5.90;1.60;;;17.40;99.90;;;;;;5140999;27;20061;-83
2022/09/21 13:14:44;;;;;;;3.72;1.40;;;17.40;99.90;;;;;;5141984;27;20050;-82
2022/09/21 13:17:22;;;;;;;2.92;1.15;;;17.40;99.90;;;;;;5144753;27;20022;-83
2022/09/21 13:19:59;;;;;;;3.35;1.27;;;17.40;99.90;;;;;;5114747;27;20040;-83
2022/09/21 13:22:29;;;;;;;3.42;1.10;;;17.50;99.90;;;;;;5144287;27;20061;-83
2022/09/21 13:25:04;;;;;;;5.82;1.50;;;17.60;99.90;;;;;;5124458;27;20046;-84